Time;durP1;ratioP1;P1;durP2;ratioP2;P2;SDS_P1;SDS_P2;PMS_P1;PMS_P2;Temp;Humidity;BMP_temperature;BMP_pressure;BME280_temperature;BME280_humidity;BME280_pressure;Samples;Min_cycle;Max_cycle;Signal;HPM_P1;HPM_P2
2023/04/13 00:01:49;;;;;;;15.50;10.00;;;5.50;99.90;;;;;;4905323;29;20469;-80
2023/04/13 00:04:18;;;;;;;11.80;10.30;;;5.50;99.90;;;;;;4905956;29;20521;-81
2023/04/13 00:06:46;;;;;;;13.37;10.87;;;5.50;99.90;;;;;;4904181;29;20453;-80
2023/04/13 00:09:15;;;;;;;12.03;10.13;;;5.50;99.90;;;;;;4905155;29;20478;-80
2023/04/13 00:11:43;;;;;;;15.20;9.90;;;5.40;99.90;;;;;;4905283;29;20466;-80
2023/04/13 00:14:12;;;;;;;12.57;10.93;;;5.40;99.90;;;;;;4906307;29;20878;-80
2023/04/13 00:16:41;;;;;;;17.80;12.70;;;5.40;99.90;;;;;;4905088;29;20457;-80
2023/04/13 00:19:09;;;;;;;11.67;10.10;;;5.40;99.90;;;;;;4905291;29;20989;-80
2023/04/13 00:21:40;;;;;;;14.03;10.50;;;5.40;99.90;;;;;;4904634;29;20497;-80
2023/04/13 00:24:08;;;;;;;15.23;11.53;;;5.40;99.90;;;;;;4904720;29;20545;-80
2023/04/13 00:26:37;;;;;;;11.80;10.40;;;5.40;99.90;;;;;;4904997;29;20461;-80
2023/04/13 00:29:05;;;;;;;12.20;10.60;;;5.40;99.90;;;;;;4906027;29;20478;-80
2023/04/13 00:31:34;;;;;;;13.60;11.37;;;5.30;99.90;;;;;;4905893;29;20461;-81
2023/04/13 00:34:03;;;;;;;16.20;11.80;;;5.30;99.90;;;;;;4905725;29;20479;-80
2023/04/13 00:36:31;;;;;;;13.13;11.03;;;5.30;99.90;;;;;;4905089;29;20449;-80
2023/04/13 00:38:59;;;;;;;13.90;10.90;;;5.30;99.90;;;;;;4904986;29;20467;-80
2023/04/13 00:41:28;;;;;;;11.73;9.77;;;5.20;99.90;;;;;;4903964;29;20893;-79
2023/04/13 00:43:57;;;;;;;12.00;10.87;;;5.20;99.90;;;;;;4903867;29;20449;-80
2023/04/13 00:46:26;;;;;;;14.70;11.87;;;5.20;99.90;;;;;;4903710;29;20452;-80
2023/04/13 00:48:57;;;;;;;13.00;11.10;;;5.20;99.90;;;;;;4905520;29;20555;-80
2023/04/13 00:51:25;;;;;;;13.33;10.90;;;5.10;99.90;;;;;;4903838;29;20521;-80
2023/04/13 00:53:53;;;;;;;12.70;10.97;;;5.20;99.90;;;;;;4904172;29;20461;-80
2023/04/13 00:56:21;;;;;;;11.70;10.50;;;5.10;99.90;;;;;;4904575;29;20464;-80
2023/04/13 00:58:50;;;;;;;13.43;10.80;;;5.10;99.90;;;;;;4904220;29;20464;-80
2023/04/13 01:01:18;;;;;;;14.37;10.57;;;5.10;99.90;;;;;;4904457;29;20456;-80
2023/04/13 01:03:48;;;;;;;12.30;10.00;;;5.10;99.90;;;;;;4903799;29;20456;-81
2023/04/13 01:06:25;;;;;;;17.50;11.93;;;5.10;99.90;;;;;;4903561;29;20817;-80
2023/04/13 01:08:57;;;;;;;12.50;10.50;;;5.10;99.90;;;;;;4904167;29;20910;-80
2023/04/13 01:11:34;;;;;;;12.33;10.40;;;5.10;99.90;;;;;;4903825;29;20818;-80
2023/04/13 01:14:09;;;;;;;12.30;10.63;;;5.10;99.90;;;;;;4904834;29;20485;-80
2023/04/13 01:16:41;;;;;;;14.13;10.27;;;5.10;99.90;;;;;;4904395;29;20528;-80
2023/04/13 01:19:20;;;;;;;11.47;10.17;;;5.10;99.90;;;;;;4903928;29;20466;-80
2023/04/13 01:21:53;;;;;;;12.67;10.77;;;5.10;99.90;;;;;;4903606;29;20473;-80
2023/04/13 01:24:40;;;;;;;14.70;10.30;;;5.00;99.90;;;;;;4903835;29;21000;-80
2023/04/13 01:27:15;;;;;;;13.20;9.40;;;5.00;99.90;;;;;;4903325;29;20971;-80
2023/04/13 01:29:47;;;;;;;12.40;10.43;;;5.00;99.90;;;;;;4902464;29;20470;-80
2023/04/13 01:32:16;;;;;;;14.13;10.90;;;5.00;99.90;;;;;;4903272;29;20466;-80
2023/04/13 01:34:45;;;;;;;13.33;9.97;;;5.00;99.90;;;;;;4903364;29;20510;-80
2023/04/13 01:37:16;;;;;;;21.17;11.30;;;5.00;99.90;;;;;;4903699;29;20453;-80
2023/04/13 01:39:45;;;;;;;14.60;11.27;;;5.00;99.90;;;;;;4903398;29;20445;-80
2023/04/13 01:42:25;;;;;;;14.10;11.80;;;5.00;99.90;;;;;;4918876;29;20485;-80
2023/04/13 01:44:55;;;;;;;13.23;10.93;;;5.00;99.90;;;;;;4903599;29;20450;-80
2023/04/13 01:47:25;;;;;;;12.60;10.70;;;5.00;99.90;;;;;;4903496;29;20513;-80
2023/04/13 01:50:24;;;;;;;13.33;11.33;;;5.00;99.90;;;;;;4896811;29;20473;-80
2023/04/13 01:53:10;;;;;;;15.77;11.50;;;4.90;99.90;;;;;;4903234;29;20508;-80
2023/04/13 01:55:43;;;;;;;12.97;10.83;;;4.90;99.90;;;;;;4904025;29;20528;-81
2023/04/13 01:58:14;;;;;;;13.60;10.73;;;4.90;99.90;;;;;;4904262;29;20953;-80
2023/04/13 02:00:48;;;;;;;13.47;10.90;;;4.90;99.90;;;;;;4904059;29;20448;-80
2023/04/13 02:03:17;;;;;;;16.50;12.20;;;4.90;99.90;;;;;;4904449;29;20878;-81
2023/04/13 02:05:45;;;;;;;15.20;12.23;;;4.90;99.90;;;;;;4903929;29;20460;-81
2023/04/13 02:08:14;;;;;;;15.87;12.03;;;4.90;99.90;;;;;;4903203;29;20524;-80
2023/04/13 02:10:46;;;;;;;13.20;11.63;;;4.90;99.90;;;;;;4903073;29;20469;-80
2023/04/13 02:13:14;;;;;;;19.00;13.40;;;4.90;99.90;;;;;;4902793;29;20473;-80
2023/04/13 02:15:43;;;;;;;16.07;13.00;;;4.90;99.90;;;;;;4903406;29;20524;-80
2023/04/13 02:18:13;;;;;;;18.53;12.80;;;4.90;99.90;;;;;;4903802;29;20536;-80
2023/04/13 02:20:44;;;;;;;15.93;13.70;;;4.90;99.90;;;;;;4903701;29;20450;-81
2023/04/13 02:23:14;;;;;;;16.40;12.93;;;4.90;99.90;;;;;;4903371;29;20564;-80
2023/04/13 02:25:45;;;;;;;16.17;14.40;;;4.90;99.90;;;;;;4904180;29;20458;-80
2023/04/13 02:28:16;;;;;;;16.80;14.00;;;4.90;99.90;;;;;;4903288;29;20457;-81
2023/04/13 02:30:46;;;;;;;17.73;13.60;;;4.90;99.90;;;;;;4902653;29;20812;-80
2023/04/13 02:33:18;;;;;;;15.67;13.70;;;4.90;99.90;;;;;;4903372;29;20493;-81
2023/04/13 02:35:47;;;;;;;19.20;13.90;;;4.90;99.90;;;;;;4903873;29;20449;-81
2023/04/13 02:38:17;;;;;;;14.67;13.17;;;4.90;99.90;;;;;;4903317;29;20514;-81
2023/04/13 02:40:54;;;;;;;14.60;12.70;;;5.00;99.90;;;;;;4903235;29;20446;-81
2023/04/13 02:43:22;;;;;;;14.80;13.20;;;5.00;99.90;;;;;;4903242;29;20469;-80
2023/04/13 02:45:51;;;;;;;14.23;11.93;;;5.00;99.90;;;;;;4903527;29;20453;-81
2023/04/13 02:48:25;;;;;;;14.87;12.00;;;5.00;99.90;;;;;;4903745;29;20464;-80
2023/04/13 02:50:55;;;;;;;13.73;12.30;;;5.00;99.90;;;;;;4907414;29;20540;-81
2023/04/13 02:53:29;;;;;;;13.67;11.70;;;5.00;99.90;;;;;;4905730;29;20469;-81
2023/04/13 02:56:02;;;;;;;14.77;10.93;;;5.00;99.90;;;;;;4904237;29;20453;-81
2023/04/13 02:58:31;;;;;;;14.10;12.40;;;5.00;99.90;;;;;;4901778;29;20886;-80
2023/04/13 03:01:03;;;;;;;13.93;12.23;;;5.00;99.90;;;;;;4903513;29;20449;-81
2023/04/13 03:03:33;;;;;;;13.97;12.43;;;5.10;99.90;;;;;;4902972;29;20568;-81
2023/04/13 03:06:02;;;;;;;14.07;11.23;;;5.10;99.90;;;;;;4903180;29;20517;-81
2023/04/13 03:08:41;;;;;;;15.73;12.17;;;5.00;99.90;;;;;;4903056;29;20429;-80
2023/04/13 03:11:19;;;;;;;16.40;12.63;;;5.00;99.90;;;;;;4903244;29;20472;-80
2023/04/13 03:13:53;;;;;;;14.63;13.00;;;5.10;99.90;;;;;;4902664;29;20952;-80
2023/04/13 03:16:21;;;;;;;14.70;12.07;;;5.10;99.90;;;;;;4902424;29;20969;-81
2023/04/13 03:18:53;;;;;;;12.87;11.07;;;5.10;99.90;;;;;;4903144;29;20457;-81
2023/04/13 03:21:22;;;;;;;11.80;10.60;;;5.20;99.90;;;;;;4903677;29;20501;-81
2023/04/13 03:24:00;;;;;;;12.10;10.20;;;5.20;99.90;;;;;;4903453;29;20471;-81
2023/04/13 03:26:28;;;;;;;11.23;10.03;;;5.20;99.90;;;;;;4904239;29;21050;-82
2023/04/13 03:29:00;;;;;;;11.10;9.13;;;5.30;99.90;;;;;;4907165;29;20481;-81
2023/04/13 03:31:32;;;;;;;10.03;7.90;;;5.30;99.90;;;;;;4906937;29;20556;-81
2023/04/13 03:34:02;;;;;;;11.30;8.83;;;5.30;99.90;;;;;;4907052;29;20446;-81
2023/04/13 03:36:36;;;;;;;9.40;8.30;;;5.30;99.90;;;;;;4907341;29;20461;-81
2023/04/13 03:39:05;;;;;;;8.80;7.63;;;5.30;99.90;;;;;;4907930;29;21059;-80
2023/04/13 03:41:37;;;;;;;11.03;8.13;;;5.40;99.90;;;;;;4907520;29;20488;-81
2023/04/13 03:44:08;;;;;;;9.43;7.17;;;5.40;99.90;;;;;;4908089;29;20945;-81
2023/04/13 03:46:38;;;;;;;8.80;7.70;;;5.40;99.90;;;;;;4908016;29;20456;-82
2023/04/13 03:49:21;;;;;;;8.77;6.57;;;5.40;99.90;;;;;;4908244;29;20513;-81
2023/04/13 03:51:49;;;;;;;7.70;6.47;;;5.40;99.90;;;;;;4911405;29;20481;-81
2023/04/13 03:54:18;;;;;;;8.10;6.43;;;5.50;99.90;;;;;;4911520;29;20453;-81
2023/04/13 03:56:46;;;;;;;8.30;6.00;;;5.50;99.90;;;;;;4911793;29;20457;-81
2023/04/13 03:59:14;;;;;;;8.67;5.87;;;5.50;99.90;;;;;;4910393;29;20460;-80
2023/04/13 04:01:43;;;;;;;6.57;5.27;;;5.50;99.90;;;;;;4909109;29;20587;-80
2023/04/13 04:04:11;;;;;;;7.17;5.83;;;5.60;99.90;;;;;;4908508;29;20457;-81
2023/04/13 04:06:41;;;;;;;13.33;9.10;;;5.60;99.90;;;;;;4906472;29;20493;-80
2023/04/13 04:09:13;;;;;;;8.27;6.30;;;5.60;99.90;;;;;;4906780;29;20514;-81
2023/04/13 04:11:49;;;;;;;14.17;9.50;;;5.60;99.90;;;;;;4906836;29;20495;-81
2023/04/13 04:14:25;;;;;;;9.70;6.80;;;5.60;99.90;;;;;;4906291;29;20496;-81
2023/04/13 04:17:02;;;;;;;7.33;5.20;;;5.70;99.90;;;;;;4906356;29;20456;-80
2023/04/13 04:19:30;;;;;;;8.67;4.83;;;5.70;99.90;;;;;;4905642;29;20508;-80
2023/04/13 04:22:05;;;;;;;7.43;5.03;;;5.70;99.90;;;;;;4905837;29;20473;-80
2023/04/13 04:24:38;;;;;;;5.70;4.57;;;5.70;99.90;;;;;;4906307;29;20521;-80
2023/04/13 04:27:06;;;;;;;5.93;4.63;;;5.70;99.90;;;;;;4906154;29;20465;-81
2023/04/13 04:29:35;;;;;;;5.27;4.20;;;5.70;99.90;;;;;;4906184;29;20453;-81
2023/04/13 04:32:17;;;;;;;5.57;4.17;;;5.80;99.90;;;;;;4906238;29;20487;-81
2023/04/13 04:34:51;;;;;;;6.77;5.33;;;5.80;99.90;;;;;;4906078;29;20450;-81
2023/04/13 04:37:22;;;;;;;5.53;4.20;;;5.80;99.90;;;;;;4906115;29;20519;-81
2023/04/13 04:40:04;;;;;;;11.43;7.67;;;5.80;99.90;;;;;;4905444;29;20472;-81
2023/04/13 04:42:32;;;;;;;6.93;4.77;;;5.90;99.90;;;;;;4905734;29;20476;-81
2023/04/13 04:45:04;;;;;;;6.00;4.00;;;5.90;99.90;;;;;;4905161;29;20443;-81
2023/04/13 04:47:40;;;;;;;6.00;3.87;;;5.90;99.90;;;;;;4904592;29;20446;-81
2023/04/13 04:50:21;;;;;;;6.20;3.60;;;5.90;99.90;;;;;;4904879;29;20501;-81
2023/04/13 04:52:58;;;;;;;5.37;3.40;;;6.00;99.90;;;;;;4905370;29;20497;-81
2023/04/13 04:55:26;;;;;;;6.67;4.23;;;6.00;99.90;;;;;;4905177;29;20462;-81
2023/04/13 04:57:56;;;;;;;5.77;4.37;;;6.00;99.90;;;;;;4904932;29;20453;-81
2023/04/13 05:00:25;;;;;;;7.07;4.43;;;6.00;99.90;;;;;;4906307;29;20460;-81
2023/04/13 05:03:15;;;;;;;5.93;3.43;;;6.10;99.90;;;;;;4902882;29;20469;-81
2023/04/13 05:05:49;;;;;;;4.73;3.30;;;6.10;99.90;;;;;;4903887;29;20457;-81
2023/04/13 05:08:28;;;;;;;4.90;3.27;;;6.10;99.90;;;;;;4904747;29;20484;-82
2023/04/13 05:10:56;;;;;;;6.00;3.83;;;6.10;99.90;;;;;;4903953;29;20478;-79
2023/04/13 05:13:27;;;;;;;8.40;3.37;;;6.20;99.90;;;;;;4904046;29;20553;-80
2023/04/13 05:16:16;;;;;;;4.20;2.90;;;6.20;99.90;;;;;;4904958;29;20892;-80
2023/04/13 05:18:46;;;;;;;4.30;3.00;;;6.20;99.90;;;;;;4903194;29;20550;-80
2023/04/13 05:21:53;;;;;;;6.30;4.53;;;6.20;99.90;;;;;;4896919;29;20568;-80
2023/04/13 05:24:24;;;;;;;6.57;4.53;;;6.20;99.90;;;;;;4903924;29;21013;-81
2023/04/13 05:26:55;;;;;;;6.83;5.00;;;6.30;99.90;;;;;;4904039;29;20552;-81
2023/04/13 05:29:23;;;;;;;6.27;3.60;;;6.30;99.90;;;;;;4903829;29;20446;-80
2023/04/13 05:31:52;;;;;;;5.33;2.90;;;6.30;99.90;;;;;;4903900;29;20487;-80
2023/04/13 05:34:21;;;;;;;4.57;2.80;;;6.30;99.90;;;;;;4903295;29;20454;-80
2023/04/13 05:37:05;;;;;;;4.77;3.03;;;6.40;99.90;;;;;;4903991;29;20525;-80
2023/04/13 05:39:35;;;;;;;5.73;3.30;;;6.40;99.90;;;;;;4903507;29;20474;-80
2023/04/13 05:42:06;;;;;;;4.27;2.93;;;6.40;99.90;;;;;;4903393;29;20470;-80
2023/04/13 05:44:38;;;;;;;5.43;2.80;;;6.40;99.90;;;;;;4904097;29;20448;-81
2023/04/13 05:47:06;;;;;;;5.60;2.77;;;6.50;99.90;;;;;;4903079;29;20465;-81
2023/04/13 05:49:36;;;;;;;5.20;3.23;;;6.50;99.90;;;;;;4902634;29;20480;-80
2023/04/13 05:52:06;;;;;;;5.50;3.27;;;6.50;99.90;;;;;;4902860;29;21023;-82
2023/04/13 05:54:49;;;;;;;6.40;3.17;;;6.50;99.90;;;;;;4909710;29;20462;-79
2023/04/13 05:57:20;;;;;;;5.83;3.93;;;6.50;99.90;;;;;;4914278;29;20520;-79
2023/04/13 05:59:52;;;;;;;7.63;3.70;;;6.60;99.90;;;;;;4918161;29;20451;-79
2023/04/13 06:02:25;;;;;;;4.87;3.57;;;6.60;99.90;;;;;;4914901;29;20476;-79
2023/04/13 06:04:55;;;;;;;5.40;3.63;;;6.60;99.90;;;;;;4915474;29;20454;-80
2023/04/13 06:07:24;;;;;;;5.30;3.40;;;6.60;99.90;;;;;;4915538;29;20457;-80
2023/04/13 06:09:54;;;;;;;4.83;3.30;;;6.60;99.90;;;;;;4914286;29;20455;-80
2023/04/13 06:12:22;;;;;;;4.47;3.40;;;6.70;99.90;;;;;;4913316;29;20485;-80
2023/04/13 06:14:54;;;;;;;5.80;3.60;;;6.70;99.90;;;;;;4914119;29;20446;-80
2023/04/13 06:17:23;;;;;;;7.67;3.90;;;6.70;99.90;;;;;;4906196;29;20452;-80
2023/04/13 06:19:53;;;;;;;5.57;3.50;;;6.70;99.90;;;;;;4902451;29;20456;-80
2023/04/13 06:22:21;;;;;;;7.07;3.90;;;6.80;99.90;;;;;;4903255;29;20490;-80
2023/04/13 06:24:51;;;;;;;5.87;4.17;;;6.80;99.90;;;;;;4902444;29;20475;-80
2023/04/13 06:27:21;;;;;;;5.73;3.90;;;6.90;99.90;;;;;;4902705;29;20453;-81
2023/04/13 06:29:50;;;;;;;4.73;4.23;;;6.90;99.90;;;;;;4902546;29;20499;-81
2023/04/13 06:32:18;;;;;;;5.60;4.33;;;7.00;99.90;;;;;;4902873;29;20938;-81
2023/04/13 06:34:46;;;;;;;6.17;4.80;;;6.90;99.90;;;;;;4902441;29;20492;-80
2023/04/13 06:37:16;;;;;;;7.10;5.40;;;7.10;99.90;;;;;;4902832;29;20462;-81
2023/04/13 06:39:48;;;;;;;5.83;4.83;;;7.10;99.90;;;;;;4902211;29;20443;-81
2023/04/13 06:42:18;;;;;;;6.77;5.10;;;7.10;99.90;;;;;;4902790;29;20485;-81
2023/04/13 06:45:02;;;;;;;9.00;6.47;;;7.20;99.90;;;;;;4902987;29;20458;-81
2023/04/13 06:47:40;;;;;;;6.83;6.23;;;7.20;99.90;;;;;;4902551;29;20451;-81
2023/04/13 06:50:14;;;;;;;7.50;6.70;;;7.30;99.90;;;;;;4902443;29;21001;-81
2023/04/13 06:52:44;;;;;;;8.37;6.50;;;7.30;99.90;;;;;;4902268;29;20540;-81
2023/04/13 06:55:13;;;;;;;7.17;6.47;;;7.40;99.90;;;;;;4901824;29;20464;-78
2023/04/13 06:57:42;;;;;;;7.40;6.70;;;7.40;99.90;;;;;;4902536;29;20524;-79
2023/04/13 07:00:14;;;;;;;9.20;6.40;;;7.50;99.90;;;;;;4904516;29;20448;-80
2023/04/13 07:02:58;;;;;;;7.53;6.70;;;7.60;99.90;;;;;;4905681;29;20480;-79
2023/04/13 07:05:27;;;;;;;9.20;7.03;;;7.60;99.90;;;;;;4905033;29;20507;-80
2023/04/13 07:08:01;;;;;;;7.33;6.43;;;7.60;99.90;;;;;;4904647;29;20490;-82
2023/04/13 07:10:30;;;;;;;7.30;6.60;;;7.70;99.90;;;;;;4906326;29;20514;-80
2023/04/13 07:13:03;;;;;;;8.00;7.20;;;7.70;99.90;;;;;;4905004;29;20477;-79
2023/04/13 07:15:36;;;;;;;9.80;7.47;;;7.70;99.90;;;;;;4905064;29;20452;-79
2023/04/13 07:18:04;;;;;;;7.63;6.83;;;7.80;99.90;;;;;;4904241;29;20535;-79
2023/04/13 07:20:34;;;;;;;7.40;6.73;;;7.80;99.90;;;;;;4905305;29;20471;-80
2023/04/13 07:23:03;;;;;;;10.10;7.27;;;8.00;99.90;;;;;;4904066;29;20654;-79
2023/04/13 07:25:36;;;;;;;6.80;6.10;;;8.10;99.90;;;;;;4904260;29;20453;-80
2023/04/13 07:28:07;;;;;;;7.80;7.00;;;8.20;99.90;;;;;;4904888;29;20516;-79
2023/04/13 07:30:37;;;;;;;7.70;6.37;;;8.30;99.90;;;;;;4904733;29;20518;-80
2023/04/13 07:33:05;;;;;;;10.33;6.50;;;8.40;99.90;;;;;;4906296;29;20509;-83
2023/04/13 07:35:36;;;;;;;7.27;5.27;;;8.60;99.90;;;;;;4905914;29;20457;-82
2023/04/13 07:38:04;;;;;;;9.23;6.50;;;8.70;99.90;;;;;;4906046;29;20453;-82
2023/04/13 07:40:34;;;;;;;6.83;5.17;;;8.70;99.90;;;;;;4905901;29;20970;-82
2023/04/13 07:43:08;;;;;;;6.63;5.27;;;8.70;99.90;;;;;;4905922;29;20507;-82
2023/04/13 07:45:40;;;;;;;8.53;6.17;;;8.70;99.90;;;;;;4905814;29;20819;-82
2023/04/13 07:48:14;;;;;;;6.67;5.47;;;9.10;99.90;;;;;;4906568;29;20536;-80
2023/04/13 07:50:44;;;;;;;5.67;4.77;;;9.20;99.90;;;;;;4905667;29;20539;-81
2023/04/13 07:53:17;;;;;;;6.80;4.80;;;9.40;99.90;;;;;;4904605;29;20531;-80
2023/04/13 07:55:46;;;;;;;6.27;4.83;;;9.60;99.90;;;;;;4905401;29;20980;-81
2023/04/13 07:58:14;;;;;;;6.47;4.80;;;9.60;99.90;;;;;;4906179;29;20445;-80
2023/04/13 08:00:45;;;;;;;6.53;4.90;;;9.60;99.90;;;;;;4905207;29;20834;-82
2023/04/13 08:03:15;;;;;;;6.03;5.00;;;9.60;99.90;;;;;;4904398;29;20477;-79
2023/04/13 08:05:54;;;;;;;5.63;4.73;;;9.60;99.90;;;;;;4904977;29;20823;-81
2023/04/13 08:08:23;;;;;;;6.07;5.40;;;9.60;99.90;;;;;;4905887;29;20454;-80
2023/04/13 08:10:51;;;;;;;6.43;5.33;;;9.80;99.90;;;;;;4903591;29;20897;-80
2023/04/13 08:13:20;;;;;;;7.33;5.60;;;9.90;99.90;;;;;;4901814;29;20473;-80
2023/04/13 08:15:50;;;;;;;7.13;4.50;;;10.00;99.90;;;;;;4902607;29;20457;-81
2023/04/13 08:18:18;;;;;;;6.77;5.10;;;9.90;99.90;;;;;;4903059;29;20457;-80
2023/04/13 08:20:47;;;;;;;5.10;4.60;;;9.90;99.90;;;;;;4903563;29;20450;-80
2023/04/13 08:23:20;;;;;;;5.90;5.30;;;9.90;99.90;;;;;;4902757;29;20474;-79
2023/04/13 08:25:48;;;;;;;6.87;5.17;;;9.80;99.90;;;;;;4903941;29;20827;-80
2023/04/13 08:28:16;;;;;;;6.43;5.20;;;9.90;99.90;;;;;;4907147;29;20460;-79
2023/04/13 08:30:45;;;;;;;6.60;5.10;;;9.90;99.90;;;;;;4912279;29;20985;-80
2023/04/13 08:33:17;;;;;;;6.20;5.47;;;9.90;99.90;;;;;;4905046;29;20481;-80
2023/04/13 08:35:46;;;;;;;7.70;6.57;;;9.90;99.90;;;;;;4903506;29;20449;-80
2023/04/13 08:38:14;;;;;;;7.83;5.70;;;9.90;99.90;;;;;;4903568;29;20489;-80
2023/04/13 08:40:48;;;;;;;6.53;5.90;;;10.00;99.90;;;;;;4904223;29;20454;-80
2023/04/13 08:43:23;;;;;;;7.67;5.30;;;10.00;99.90;;;;;;4902753;29;20469;-79
2023/04/13 08:45:51;;;;;;;6.60;4.93;;;10.00;99.90;;;;;;4903378;29;20454;-80
2023/04/13 08:48:22;;;;;;;7.33;5.37;;;10.10;99.90;;;;;;4903580;29;20462;-80
2023/04/13 08:50:53;;;;;;;6.27;4.90;;;10.00;99.90;;;;;;4903599;29;20464;-80
2023/04/13 08:53:22;;;;;;;6.93;4.80;;;10.20;99.90;;;;;;4903571;29;20505;-80
2023/04/13 08:55:52;;;;;;;5.93;4.20;;;10.20;99.90;;;;;;4902762;29;20457;-80
2023/04/13 08:58:24;;;;;;;6.57;4.40;;;10.30;99.90;;;;;;4904398;29;20456;-80
2023/04/13 09:00:53;;;;;;;6.73;4.00;;;10.30;99.90;;;;;;4904009;29;20592;-80
2023/04/13 09:03:26;;;;;;;6.70;4.30;;;10.50;99.90;;;;;;4904361;29;20557;-80
2023/04/13 09:05:59;;;;;;;5.03;4.30;;;10.60;99.90;;;;;;4904789;29;20445;-81
2023/04/13 09:08:33;;;;;;;6.97;4.40;;;10.80;99.90;;;;;;4904551;29;20460;-80
2023/04/13 09:11:04;;;;;;;7.37;4.20;;;11.00;99.90;;;;;;4902807;29;20820;-80
2023/04/13 09:13:32;;;;;;;4.87;3.90;;;11.00;99.90;;;;;;4903643;29;20914;-80
2023/04/13 09:16:01;;;;;;;4.83;4.23;;;11.00;99.90;;;;;;4902781;29;20968;-80
2023/04/13 09:18:52;;;;;;;4.97;3.50;;;11.00;99.90;;;;;;4904314;29;20465;-80
2023/04/13 09:21:21;;;;;;;5.13;3.63;;;11.00;99.90;;;;;;4903647;29;20481;-81
2023/04/13 09:23:57;;;;;;;5.73;3.80;;;11.00;99.90;;;;;;4903009;29;20461;-80
2023/04/13 09:26:26;;;;;;;6.20;3.80;;;11.00;99.90;;;;;;4901973;29;20449;-80
2023/04/13 09:28:56;;;;;;;8.27;4.73;;;11.00;99.90;;;;;;4903009;29;20984;-80
2023/04/13 09:31:25;;;;;;;6.70;4.07;;;11.00;99.90;;;;;;4903782;29;20456;-81
2023/04/13 09:33:55;;;;;;;5.10;3.57;;;11.00;99.90;;;;;;4903438;29;20473;-81
2023/04/13 09:36:25;;;;;;;6.73;4.03;;;11.00;99.90;;;;;;4903588;29;20876;-80
2023/04/13 09:38:56;;;;;;;8.50;4.23;;;11.10;99.90;;;;;;4903547;29;20909;-80
2023/04/13 09:41:35;;;;;;;6.63;3.80;;;11.10;99.90;;;;;;4905002;29;20455;-81
2023/04/13 09:44:16;;;;;;;6.63;3.67;;;11.20;99.90;;;;;;4902355;29;20811;-83
2023/04/13 09:46:44;;;;;;;5.23;3.70;;;11.30;99.90;;;;;;4903971;29;20449;-83
2023/04/13 09:49:14;;;;;;;4.73;3.70;;;11.30;99.90;;;;;;4906450;29;20584;-82
2023/04/13 09:51:42;;;;;;;7.83;4.00;;;11.40;99.90;;;;;;4905892;29;20510;-83
2023/04/13 09:54:11;;;;;;;7.70;3.43;;;11.50;99.90;;;;;;4910273;29;20469;-82
2023/04/13 09:56:44;;;;;;;5.70;4.03;;;11.50;99.90;;;;;;4907336;29;20457;-82
2023/04/13 09:59:12;;;;;;;5.67;3.63;;;11.60;99.90;;;;;;4908390;29;20449;-82
2023/04/13 10:01:41;;;;;;;5.83;3.93;;;11.60;99.90;;;;;;4908361;29;20920;-82
2023/04/13 10:04:10;;;;;;;6.03;3.90;;;11.50;99.90;;;;;;4907650;29;20458;-82
2023/04/13 10:06:42;;;;;;;4.70;3.67;;;11.50;99.90;;;;;;4907260;29;20484;-82
2023/04/13 10:09:10;;;;;;;5.60;3.90;;;11.40;99.90;;;;;;4907837;29;20485;-81
2023/04/13 10:11:45;;;;;;;6.40;4.37;;;11.40;99.90;;;;;;4906323;29;20461;-81
2023/04/13 10:14:16;;;;;;;5.33;4.43;;;11.40;99.90;;;;;;4906789;29;20555;-80
2023/04/13 10:17:25;;;;;;;6.73;3.70;;;11.40;99.90;;;;;;4907252;29;20450;-81
2023/04/13 10:19:55;;;;;;;6.80;4.07;;;11.40;99.90;;;;;;4902536;29;20465;-80
2023/04/13 10:22:25;;;;;;;6.03;4.40;;;11.40;99.90;;;;;;4906307;29;20473;-80
2023/04/13 10:24:54;;;;;;;5.53;4.10;;;11.40;99.90;;;;;;4906040;29;21028;-80
2023/04/13 10:27:23;;;;;;;5.40;3.50;;;11.40;99.90;;;;;;4904437;29;20489;-80
2023/04/13 10:29:52;;;;;;;4.90;3.40;;;11.40;99.90;;;;;;4903812;29;20461;-81
2023/04/13 10:32:21;;;;;;;6.37;4.40;;;11.40;99.90;;;;;;4905103;29;20556;-81
2023/04/13 10:34:50;;;;;;;6.07;3.70;;;11.40;99.90;;;;;;4905996;29;20980;-82
2023/04/13 10:37:21;;;;;;;5.13;3.87;;;11.40;99.90;;;;;;4905789;29;20492;-81
2023/04/13 10:40:04;;;;;;;6.33;3.90;;;11.40;99.90;;;;;;4904050;29;20461;-81
2023/04/13 10:42:41;;;;;;;5.87;4.10;;;11.40;99.90;;;;;;4906695;29;20529;-81
2023/04/13 10:45:22;;;;;;;4.87;3.97;;;11.50;99.90;;;;;;4907399;29;20456;-82
2023/04/13 10:47:51;;;;;;;5.23;3.90;;;11.60;99.90;;;;;;4904723;29;20450;-81
2023/04/13 10:50:21;;;;;;;5.80;3.90;;;11.70;99.90;;;;;;4904079;29;20465;-81
2023/04/13 10:52:58;;;;;;;5.57;3.50;;;11.80;99.90;;;;;;4904134;29;20485;-80
2023/04/13 10:55:27;;;;;;;6.00;3.20;;;11.90;99.90;;;;;;4903294;29;20465;-80
2023/04/13 10:57:57;;;;;;;5.23;3.30;;;12.00;99.90;;;;;;4901060;29;20540;-80
2023/04/13 11:00:27;;;;;;;5.50;3.90;;;12.00;99.90;;;;;;4900212;29;20489;-79
2023/04/13 11:03:14;;;;;;;6.97;3.40;;;12.00;99.90;;;;;;4901921;29;20524;-80
2023/04/13 11:05:45;;;;;;;5.30;3.50;;;12.00;99.90;;;;;;4902525;29;20457;-80
2023/04/13 11:08:19;;;;;;;5.33;3.40;;;12.00;99.90;;;;;;4900336;29;20468;-80
2023/04/13 11:10:53;;;;;;;4.37;3.63;;;12.00;99.90;;;;;;4900484;29;20453;-80
2023/04/13 11:13:24;;;;;;;5.53;3.70;;;12.00;99.90;;;;;;4902189;29;20457;-80
2023/04/13 11:16:00;;;;;;;4.43;3.27;;;12.10;99.90;;;;;;4900323;29;20456;-79
2023/04/13 11:18:28;;;;;;;5.07;2.70;;;12.10;99.90;;;;;;4899656;29;20830;-79
2023/04/13 11:20:57;;;;;;;5.73;3.27;;;12.10;99.90;;;;;;4900704;29;20481;-80
2023/04/13 11:23:25;;;;;;;4.90;3.13;;;12.10;99.90;;;;;;4901791;29;20549;-81
2023/04/13 11:25:58;;;;;;;4.50;2.57;;;12.10;99.90;;;;;;4901194;29;20536;-81
2023/04/13 11:28:42;;;;;;;5.77;2.90;;;12.10;99.90;;;;;;4902595;29;20452;-80
2023/04/13 11:31:11;;;;;;;3.30;2.33;;;12.20;99.90;;;;;;4903405;29;20449;-80
2023/04/13 11:33:40;;;;;;;7.10;2.67;;;12.30;99.90;;;;;;4908995;29;20485;-80
2023/04/13 11:36:10;;;;;;;4.77;2.40;;;12.30;99.90;;;;;;4911792;29;20489;-80
2023/04/13 11:38:39;;;;;;;3.87;2.60;;;12.40;99.90;;;;;;4903468;29;20948;-80
2023/04/13 11:41:09;;;;;;;4.27;3.00;;;12.40;99.90;;;;;;4902530;29;20547;-81
2023/04/13 11:43:41;;;;;;;5.00;3.13;;;12.50;99.90;;;;;;4904851;29;20460;-80
2023/04/13 11:46:14;;;;;;;4.83;3.50;;;12.60;99.90;;;;;;4905409;29;20445;-80
2023/04/13 11:48:43;;;;;;;4.03;2.73;;;12.60;99.90;;;;;;4907419;29;20468;-80
2023/04/13 11:51:11;;;;;;;3.70;2.60;;;12.70;99.90;;;;;;4907119;29;20552;-81
2023/04/13 11:53:40;;;;;;;5.30;3.43;;;12.80;99.90;;;;;;4906659;29;20471;-82
2023/04/13 11:56:10;;;;;;;4.80;3.17;;;12.90;99.90;;;;;;4904495;29;20451;-80
2023/04/13 11:58:39;;;;;;;4.50;3.00;;;12.90;99.90;;;;;;4907489;29;20503;-81
2023/04/13 12:01:09;;;;;;;4.10;3.13;;;13.00;99.90;;;;;;4907352;29;20457;-80
2023/04/13 12:03:50;;;;;;;4.30;2.90;;;13.00;99.90;;;;;;4900496;29;20449;-80
2023/04/13 12:06:41;;;;;;;6.10;3.50;;;13.00;99.90;;;;;;4904530;29;20823;-80
2023/04/13 12:09:11;;;;;;;4.90;3.13;;;13.00;99.90;;;;;;4904836;29;20449;-81
2023/04/13 12:11:48;;;;;;;8.77;4.00;;;12.90;99.90;;;;;;4904962;29;20473;-81
2023/04/13 12:14:23;;;;;;;5.43;2.93;;;12.90;99.90;;;;;;4904004;29;21002;-80
2023/04/13 12:17:12;;;;;;;5.57;4.00;;;12.80;99.90;;;;;;4904643;29;20484;-81
2023/04/13 12:20:02;;;;;;;5.23;3.80;;;12.70;99.90;;;;;;4904045;29;20517;-81
2023/04/13 12:22:38;;;;;;;6.20;4.50;;;12.50;99.90;;;;;;4904938;29;20572;-81
2023/04/13 12:25:22;;;;;;;3.90;2.80;;;12.40;99.90;;;;;;4903174;29;20489;-79
2023/04/13 12:27:54;;;;;;;4.53;2.13;;;12.20;99.90;;;;;;4901064;29;20501;-79
2023/04/13 12:30:23;;;;;;;4.63;1.90;;;12.00;99.90;;;;;;4902014;29;20460;-80
2023/04/13 12:32:53;;;;;;;3.80;1.53;;;11.70;99.90;;;;;;4902731;29;21008;-82
2023/04/13 12:35:21;;;;;;;3.93;1.73;;;11.40;99.90;;;;;;4902902;29;20473;-81
2023/04/13 12:37:51;;;;;;;3.77;1.50;;;11.20;99.90;;;;;;4902324;29;20514;-81
2023/04/13 12:40:19;;;;;;;4.20;1.33;;;11.10;99.90;;;;;;4902080;29;20512;-81
2023/04/13 12:42:49;;;;;;;3.70;1.80;;;11.00;99.90;;;;;;4901825;29;20567;-81
2023/04/13 12:45:18;;;;;;;3.03;1.23;;;11.00;99.90;;;;;;4902112;29;21098;-81
2023/04/13 12:47:46;;;;;;;3.20;1.20;;;11.00;99.90;;;;;;4901313;29;20465;-81
2023/04/13 12:50:15;;;;;;;3.70;1.23;;;11.10;99.90;;;;;;4901345;29;20479;-81
2023/04/13 12:52:44;;;;;;;3.80;1.97;;;11.10;99.90;;;;;;4901940;29;20475;-81
2023/04/13 12:55:12;;;;;;;5.53;2.93;;;11.20;99.90;;;;;;4901733;29;20480;-81
2023/04/13 12:57:40;;;;;;;3.10;1.20;;;11.20;99.90;;;;;;4902280;29;20887;-81
2023/04/13 13:00:11;;;;;;;3.40;1.27;;;11.30;99.90;;;;;;4903331;29;20448;-81
2023/04/13 13:02:40;;;;;;;3.20;1.40;;;11.30;99.90;;;;;;4901921;29;20478;-80
2023/04/13 13:05:09;;;;;;;4.00;1.30;;;11.40;99.90;;;;;;4902264;29;20458;-80
2023/04/13 13:07:37;;;;;;;2.90;1.13;;;11.40;99.90;;;;;;4904139;29;20441;-81
2023/04/13 13:10:06;;;;;;;4.10;1.60;;;11.50;99.90;;;;;;4903192;29;20460;-80
2023/04/13 13:12:56;;;;;;;4.53;1.77;;;11.60;99.90;;;;;;4903786;29;21031;-80